createdAt,value
2022-11-25T00:01:52.047Z,4.60
2022-11-25T00:05:53.961Z,4.43
2022-11-25T00:09:55.882Z,4.37
2022-11-25T00:13:58.001Z,4.93
2022-11-25T00:17:59.938Z,4.70
2022-11-25T00:22:01.863Z,3.93
2022-11-25T00:26:14.220Z,4.37
2022-11-25T00:30:16.267Z,4.80
2022-11-25T00:34:18.174Z,4.87
2022-11-25T00:38:20.096Z,4.17
2022-11-25T00:42:40.744Z,4.73
2022-11-25T00:46:42.985Z,4.83
2022-11-25T00:50:45.006Z,5.00
2022-11-25T00:54:47.787Z,5.30
2022-11-25T00:58:49.735Z,5.40
2022-11-25T01:02:51.630Z,4.97
2022-11-25T01:06:54.298Z,4.47
2022-11-25T01:11:04.370Z,4.90
2022-11-25T01:15:09.008Z,4.73
2022-11-25T01:19:11.892Z,4.20
2022-11-25T01:23:13.841Z,5.77
2022-11-25T01:27:15.723Z,5.90
2022-11-25T01:31:19.804Z,6.47
2022-11-25T01:35:21.688Z,7.77
2022-11-25T01:39:30.431Z,7.43
2022-11-25T01:43:34.365Z,7.33
2022-11-25T01:47:36.272Z,8.77
2022-11-25T01:51:50.424Z,8.47
2022-11-25T01:56:00.714Z,8.83
2022-11-25T02:00:05.394Z,9.40
2022-11-25T02:04:07.828Z,8.53
2022-11-25T02:08:09.905Z,7.67
2022-11-25T02:12:11.835Z,7.77
2022-11-25T02:16:13.773Z,8.00
2022-11-25T02:20:22.735Z,7.67
2022-11-25T02:24:44.839Z,8.70
2022-11-25T02:28:46.795Z,8.60
2022-11-25T02:32:48.901Z,8.67
2022-11-25T02:36:50.833Z,7.80
2022-11-25T02:41:08.419Z,8.23
2022-11-25T02:45:12.098Z,8.17
2022-11-25T02:49:14.226Z,7.77
2022-11-25T02:53:16.599Z,7.87
2022-11-25T02:57:18.440Z,7.43
2022-11-25T03:01:27.049Z,5.47
2022-11-25T03:05:35.009Z,4.30
2022-11-25T03:09:42.986Z,4.23
2022-11-25T03:13:50.982Z,4.20
2022-11-25T03:18:00.022Z,4.30
2022-11-25T03:22:06.154Z,3.57
2022-11-25T03:26:08.356Z,4.07
2022-11-25T03:30:19.259Z,4.80
2022-11-25T03:34:21.160Z,7.97
2022-11-25T03:38:23.023Z,6.77
2022-11-25T03:42:24.806Z,5.03
2022-11-25T03:46:30.041Z,4.00
2022-11-25T03:50:32.041Z,3.67
2022-11-25T03:54:34.141Z,3.80
2022-11-25T03:58:36.323Z,4.30
2022-11-25T04:02:58.543Z,4.47
2022-11-25T04:07:07.880Z,5.47
2022-11-25T04:11:09.815Z,5.33
2022-11-25T04:15:12.768Z,5.23
2022-11-25T04:19:15.849Z,4.60
2022-11-25T04:23:17.742Z,4.47
2022-11-25T04:27:22.279Z,4.90
2022-11-25T04:31:27.117Z,5.27
2022-11-25T04:35:29.028Z,5.00
2022-11-25T04:39:30.958Z,5.10
2022-11-25T04:43:32.972Z,4.93
2022-11-25T04:47:35.045Z,3.70
2022-11-25T04:51:37.030Z,3.53
2022-11-25T04:55:38.926Z,4.20
2022-11-25T04:59:49.110Z,4.17
2022-11-25T05:04:52.237Z,3.83
2022-11-25T05:08:58.408Z,3.57
2022-11-25T05:17:21.375Z,3.83
2022-11-25T05:21:23.282Z,3.93
2022-11-25T05:25:28.825Z,7.23
2022-11-25T05:29:30.697Z,6.37
2022-11-25T05:33:32.774Z,5.40
2022-11-25T05:37:34.653Z,6.67
2022-11-25T05:41:36.688Z,6.37
2022-11-25T05:45:39.695Z,6.40
2022-11-25T05:49:41.795Z,7.10
2022-11-25T05:53:43.985Z,6.10
2022-11-25T05:57:49.218Z,6.43
2022-11-25T06:01:53.900Z,6.20
2022-11-25T06:05:59.377Z,5.93
2022-11-25T06:10:03.221Z,6.37
2022-11-25T06:14:15.521Z,6.37
2022-11-25T06:18:18.208Z,6.33
2022-11-25T06:22:20.054Z,6.00
2022-11-25T06:26:25.088Z,6.40
2022-11-25T06:30:27.273Z,5.40
2022-11-25T06:34:29.419Z,5.63
2022-11-25T06:38:31.550Z,4.87
2022-11-25T06:42:33.733Z,4.97
2022-11-25T06:46:38.744Z,5.20
2022-11-25T06:50:41.983Z,4.90
2022-11-25T06:54:45.568Z,4.40
2022-11-25T06:58:47.968Z,5.17
2022-11-25T07:02:53.427Z,5.37
2022-11-25T07:07:04.731Z,5.90
2022-11-25T07:11:12.559Z,5.63
2022-11-25T07:15:22.925Z,5.83
2022-11-25T07:19:25.349Z,5.50
2022-11-25T07:23:33.976Z,5.60
2022-11-25T07:27:36.328Z,5.47
2022-11-25T07:31:42.513Z,4.87
2022-11-25T07:36:06.345Z,5.33
2022-11-25T07:40:20.852Z,5.10
2022-11-25T07:44:31.684Z,5.30
2022-11-25T07:48:36.633Z,4.53
2022-11-25T07:52:40.459Z,4.53
2022-11-25T07:56:42.901Z,4.90
2022-11-25T08:00:45.368Z,4.80
2022-11-25T08:04:49.894Z,4.97
2022-11-25T08:09:09.871Z,5.03
2022-11-25T08:13:18.290Z,4.50
2022-11-25T08:17:26.525Z,4.87
2022-11-25T08:21:38.627Z,4.90
2022-11-25T08:25:50.463Z,6.17
2022-11-25T08:29:56.069Z,6.47
2022-11-25T08:34:01.538Z,6.27
2022-11-25T08:38:08.025Z,6.37
2022-11-25T08:42:19.746Z,6.00
2022-11-25T08:46:35.831Z,6.37
2022-11-25T08:50:40.199Z,6.97
2022-11-25T08:54:43.802Z,6.83
2022-11-25T08:58:50.219Z,6.60
2022-11-25T09:02:55.883Z,6.80
2022-11-25T09:06:59.649Z,5.90
2022-11-25T09:11:01.971Z,6.13
2022-11-25T09:15:04.986Z,6.20
2022-11-25T09:19:06.905Z,7.33
2022-11-25T09:23:09.211Z,6.60
2022-11-25T09:27:11.147Z,6.20
2022-11-25T09:31:15.895Z,6.77
2022-11-25T09:35:18.487Z,6.73
2022-11-25T09:39:20.547Z,6.73
2022-11-25T09:44:18.274Z,6.47
2022-11-25T09:48:45.920Z,7.17
2022-11-25T09:53:11.345Z,7.13
2022-11-25T09:57:48.533Z,7.40
2022-11-25T10:02:32.923Z,7.57
2022-11-25T10:06:37.045Z,6.90
2022-11-25T10:10:45.882Z,7.00
2022-11-25T10:15:06.826Z,7.63
2022-11-25T10:19:43.944Z,7.60
2022-11-25T10:23:45.855Z,7.40
2022-11-25T10:28:04.194Z,7.33
2022-11-25T10:32:24.147Z,7.37
2022-11-25T10:36:39.831Z,7.40
2022-11-25T10:40:48.874Z,7.60
2022-11-25T10:44:51.813Z,7.17
2022-11-25T10:49:27.404Z,7.20
2022-11-25T10:53:35.030Z,7.40
2022-11-25T10:57:53.540Z,7.13
2022-11-25T11:02:26.927Z,7.50
2022-11-25T11:45:46.509Z,7.33
2022-11-25T11:50:28.301Z,7.63
2022-11-25T11:54:45.032Z,7.27
2022-11-25T11:59:29.468Z,8.10
2022-11-25T12:04:02.544Z,7.70
2022-11-25T12:08:24.224Z,7.70
2022-11-25T12:13:01.963Z,7.13
2022-11-25T12:17:12.246Z,7.17
2022-11-25T12:21:36.351Z,7.87
2022-11-25T12:25:43.132Z,7.00
2022-11-25T12:31:16.659Z,6.97
2022-11-25T12:53:18.095Z,7.07
2022-11-25T15:17:32.182Z,10.60
2022-11-25T15:22:00.077Z,10.43
2022-11-25T15:26:02.190Z,10.90
2022-11-25T15:30:23.598Z,11.10
2022-11-25T15:34:25.509Z,11.20
2022-11-25T15:38:44.789Z,11.10
2022-11-25T15:42:51.371Z,11.97
2022-11-25T15:47:14.235Z,12.00
2022-11-25T15:51:48.475Z,11.50
2022-11-25T15:55:50.361Z,11.37
2022-11-25T15:59:55.274Z,13.33
2022-11-25T16:04:20.090Z,12.80
2022-11-25T16:08:42.068Z,11.63
2022-11-25T16:18:32.909Z,12.77
2022-11-25T16:22:37.968Z,11.80
2022-11-25T16:26:56.697Z,11.90
2022-11-25T16:32:02.918Z,13.03
2022-11-25T16:35:43.797Z,13.47
2022-11-25T16:39:48.945Z,12.83
2022-11-25T16:43:57.104Z,12.73
2022-11-25T16:48:04.166Z,12.90
2022-11-25T16:52:28.182Z,12.10
2022-11-25T19:39:21.515Z,14.30
2022-11-25T19:44:06.564Z,14.63
2022-11-25T20:05:13.245Z,12.93
2022-11-25T20:19:04.406Z,7.97
2022-11-25T21:36:19.630Z,8.40
2022-11-25T21:40:38.090Z,8.67
2022-11-25T21:44:44.521Z,8.33
2022-11-25T21:48:52.094Z,8.33
2022-11-25T21:53:04.261Z,8.97
2022-11-25T21:57:34.036Z,8.53
2022-11-25T22:01:41.615Z,8.10
2022-11-25T22:05:43.700Z,7.70
2022-11-25T22:09:45.953Z,9.03
2022-11-25T22:14:00.824Z,8.73
2022-11-25T22:18:03.725Z,9.33
2022-11-25T22:22:12.735Z,13.20
2022-11-25T22:26:29.597Z,13.97
2022-11-25T22:30:31.507Z,13.07
2022-11-25T22:34:33.454Z,13.70
2022-11-25T22:38:37.668Z,14.00
2022-11-25T22:42:47.177Z,12.33
2022-11-25T22:46:54.838Z,11.97
2022-11-25T22:51:04.328Z,9.97
2022-11-25T22:55:21.153Z,8.77
2022-11-25T23:00:11.717Z,7.47
2022-11-25T23:04:19.346Z,7.83
2022-11-25T23:08:27.088Z,7.33
2022-11-25T23:12:29.009Z,7.33
2022-11-25T23:16:35.737Z,7.47
2022-11-25T23:20:50.210Z,8.03
2022-11-25T23:24:52.146Z,7.80
2022-11-25T23:29:10.848Z,7.63
2022-11-25T23:33:27.915Z,8.20
2022-11-25T23:37:29.939Z,8.50
2022-11-25T23:41:34.217Z,8.77
2022-11-25T23:45:36.074Z,8.60
2022-11-25T23:49:40.414Z,8.20
2022-11-25T23:53:42.300Z,8.27
2022-11-25T23:57:45.233Z,8.07
